Terminal Aerodrome Forecast
Issued by NWS Lake Charles, LA

Home | Current Version | Previous Version | Text Only | Print | Product List | Glossary On
Versions: 1 2 3 4 5 6 7 8 9 10 11 12
000
FTUS44 KLCH 011122
TAFBPT
TAF
KBPT 011122Z 0112/0212 VRB03KT P6SM FEW025 BKN150
     FM011500 17008KT P6SM VCSH SCT030 BKN250
     FM011800 14009KT P6SM SHRA FEW025 BKN030
      TEMPO 0118/0122 4SM -TSRA SCT020 BKN028CB
     FM020000 17005KT P6SM FEW040 BKN200 PROB30 0202/0208 -SHRA
      SCT035 SCT250=

USA.gov is the U.S. government's official web portal to all federal, state and local government web resources and services.